Terminal Aerodrome Forecast
Issued by NWS

Home | Current Version | Previous Version | Text Only | Print | Product List | Glossary On
Versions: 1 2 3 4 5 6 7 8 9 10 11 12 13 14 15 16
000
FTUS46 KPDT 311100
TAFBDN
TAF
KBDN 311133Z 3112/0112 21011KT 5SM -RA BR BKN010 OVC040
     FM311800 30008KT P6SM -SHRA OVC060
     FM010000 32008KT 6SM -RA BR OVC040
     FM010300 02006KT 4SM -RA BR SCT005 BKN015 OVC025=

USA.gov is the U.S. government's official web portal to all federal, state and local government web resources and services.